Time;durP1;ratioP1;P1;durP2;ratioP2;P2;SDS_P1;SDS_P2;PMS_P1;PMS_P2;Temp;Humidity;BMP_temperature;BMP_pressure;BME280_temperature;BME280_humidity;BME280_pressure;Samples;Min_cycle;Max_cycle;Signal;HPM_P1;HPM_P2
2023/07/24 00:01:17;;;;;;;10.67;3.80;;;18.40;99.90;;;;;;5072587;28;20284;-72
2023/07/24 00:03:42;;;;;;;6.23;3.50;;;18.40;99.90;;;;;;5072431;28;20676;-71
2023/07/24 00:06:08;;;;;;;9.73;3.60;;;18.40;99.90;;;;;;5072064;28;20415;-71
2023/07/24 00:08:33;;;;;;;8.40;3.80;;;18.30;99.90;;;;;;5072533;28;20214;-72
2023/07/24 00:10:59;;;;;;;7.67;4.00;;;18.30;99.90;;;;;;5072496;28;20178;-72
2023/07/24 00:13:25;;;;;;;11.60;5.13;;;18.30;99.90;;;;;;5071977;28;20225;-71
2023/07/24 00:15:51;;;;;;;10.40;3.43;;;18.30;99.90;;;;;;5072472;28;20637;-72
2023/07/24 00:18:17;;;;;;;8.43;3.37;;;18.30;99.90;;;;;;5072859;28;20185;-72
2023/07/24 00:20:42;;;;;;;10.43;4.47;;;18.20;99.90;;;;;;5072029;28;20426;-72
2023/07/24 00:23:08;;;;;;;8.13;4.03;;;18.10;99.90;;;;;;5072589;28;20185;-71
2023/07/24 00:25:33;;;;;;;9.73;4.80;;;18.00;99.90;;;;;;5071893;28;20564;-71
2023/07/24 00:27:59;;;;;;;7.90;3.57;;;18.00;99.90;;;;;;5072392;28;20181;-72
2023/07/24 00:30:24;;;;;;;13.40;3.77;;;17.90;99.90;;;;;;5072243;28;20612;-72
2023/07/24 00:32:50;;;;;;;16.07;3.70;;;17.80;99.90;;;;;;5072412;28;20196;-72
2023/07/24 00:35:16;;;;;;;6.97;3.20;;;17.70;99.90;;;;;;5071596;28;20181;-72
2023/07/24 00:37:41;;;;;;;8.97;3.57;;;17.60;99.90;;;;;;5071825;28;20185;-72
2023/07/24 00:40:07;;;;;;;12.53;4.67;;;17.60;99.90;;;;;;5071833;28;20192;-71
2023/07/24 00:42:33;;;;;;;7.50;3.30;;;17.60;99.90;;;;;;5071808;28;20187;-72
2023/07/24 00:44:58;;;;;;;6.73;3.37;;;17.70;99.90;;;;;;5071552;28;20498;-72
2023/07/24 00:47:26;;;;;;;9.20;3.83;;;17.70;99.90;;;;;;5072060;28;20670;-72
2023/07/24 00:49:53;;;;;;;8.10;3.43;;;17.70;99.90;;;;;;5071859;28;20292;-72
2023/07/24 00:52:19;;;;;;;8.33;3.70;;;17.80;99.90;;;;;;5071384;28;20419;-72
2023/07/24 00:54:46;;;;;;;6.87;3.03;;;17.80;99.90;;;;;;5071012;28;20939;-71
2023/07/24 00:57:11;;;;;;;8.40;3.20;;;17.90;99.90;;;;;;5071602;28;20702;-72
2023/07/24 00:59:37;;;;;;;9.63;3.73;;;17.90;99.90;;;;;;5071223;28;20480;-71
2023/07/24 01:02:03;;;;;;;11.27;4.17;;;17.80;99.90;;;;;;5059274;28;20212;-71
2023/07/24 01:04:29;;;;;;;8.27;4.37;;;17.70;99.90;;;;;;5056461;28;20226;-71
2023/07/24 01:06:55;;;;;;;9.63;3.20;;;17.80;99.90;;;;;;5070896;28;20423;-72
2023/07/24 01:09:21;;;;;;;8.17;4.60;;;17.80;99.90;;;;;;5071302;28;20184;-72
2023/07/24 01:11:50;;;;;;;7.03;2.60;;;17.70;99.90;;;;;;5071562;28;20185;-72
2023/07/24 01:14:22;;;;;;;7.40;4.20;;;17.70;99.90;;;;;;5070999;28;20251;-72
2023/07/24 01:16:49;;;;;;;10.17;3.80;;;17.60;99.90;;;;;;5071423;28;20438;-72
2023/07/24 01:19:35;;;;;;;7.90;3.70;;;17.60;99.90;;;;;;5071379;28;20419;-72
2023/07/24 01:22:01;;;;;;;8.07;4.10;;;17.60;99.90;;;;;;5053420;28;20435;-71
2023/07/24 01:25:14;;;;;;;9.33;4.07;;;17.50;99.90;;;;;;5069713;28;20431;-71
2023/07/24 01:27:43;;;;;;;11.40;4.67;;;17.50;99.90;;;;;;5053110;28;20197;-71
2023/07/24 01:30:10;;;;;;;9.83;4.17;;;17.40;99.90;;;;;;5071091;28;20423;-71
2023/07/24 01:32:37;;;;;;;7.00;3.30;;;17.40;99.90;;;;;;5070819;28;20426;-71
2023/07/24 01:35:03;;;;;;;8.67;3.97;;;17.40;99.90;;;;;;5070451;28;20449;-71
2023/07/24 01:37:30;;;;;;;9.50;3.90;;;17.30;99.90;;;;;;5070299;28;20421;-71
2023/07/24 01:39:57;;;;;;;6.93;3.30;;;17.20;99.90;;;;;;5071004;28;20407;-71
2023/07/24 01:42:24;;;;;;;9.30;4.07;;;17.20;99.90;;;;;;5071203;28;20415;-72
2023/07/24 01:44:54;;;;;;;5.73;3.07;;;17.20;99.90;;;;;;5071361;28;20427;-72
2023/07/24 01:47:20;;;;;;;11.67;4.53;;;17.30;99.90;;;;;;5071627;28;20423;-71
2023/07/24 01:49:46;;;;;;;6.60;3.67;;;17.30;99.90;;;;;;5071843;28;20416;-71
2023/07/24 01:52:11;;;;;;;8.00;4.27;;;17.30;99.90;;;;;;5071158;28;20426;-71
2023/07/24 01:54:37;;;;;;;9.50;3.47;;;17.30;99.90;;;;;;5070841;28;20214;-71
2023/07/24 01:57:03;;;;;;;11.00;4.77;;;17.40;99.90;;;;;;5071636;28;20769;-71
2023/07/24 01:59:28;;;;;;;9.87;3.83;;;17.40;99.90;;;;;;5071522;28;20181;-71
2023/07/24 02:01:54;;;;;;;9.93;4.40;;;17.50;99.90;;;;;;5071562;28;20185;-71
2023/07/24 02:04:22;;;;;;;8.30;3.70;;;17.50;99.90;;;;;;5071023;28;20330;-71
2023/07/24 02:06:48;;;;;;;6.40;3.50;;;17.60;99.90;;;;;;5070762;28;20177;-71
2023/07/24 02:09:15;;;;;;;8.20;4.30;;;17.60;99.90;;;;;;5070994;28;20427;-71
2023/07/24 02:11:40;;;;;;;13.37;4.60;;;17.60;99.90;;;;;;5071220;28;20449;-71
2023/07/24 02:14:06;;;;;;;8.47;3.40;;;17.60;99.90;;;;;;5070599;28;20537;-71
2023/07/24 02:16:31;;;;;;;9.20;4.20;;;17.60;99.90;;;;;;5071039;28;20264;-71
2023/07/24 02:18:57;;;;;;;14.53;5.20;;;17.50;99.90;;;;;;5071313;28;20246;-71
2023/07/24 02:21:23;;;;;;;8.00;3.80;;;17.50;99.90;;;;;;5066219;28;20683;-71
2023/07/24 02:23:48;;;;;;;11.67;3.50;;;17.50;99.90;;;;;;5068121;28;20180;-71
2023/07/24 02:26:14;;;;;;;8.90;4.13;;;17.40;99.90;;;;;;5071114;28;20185;-71
2023/07/24 02:28:39;;;;;;;13.57;4.00;;;17.30;99.90;;;;;;5070995;28;20176;-71
2023/07/24 02:31:05;;;;;;;7.30;3.67;;;17.30;99.90;;;;;;5071246;28;20642;-71
2023/07/24 02:33:31;;;;;;;9.00;3.97;;;17.30;99.90;;;;;;5070681;28;20197;-71
2023/07/24 02:35:56;;;;;;;7.83;3.40;;;17.30;99.90;;;;;;5071521;28;20201;-71
2023/07/24 02:38:22;;;;;;;11.03;4.53;;;17.20;99.90;;;;;;5075148;28;20230;-71
2023/07/24 02:40:47;;;;;;;10.67;4.40;;;17.10;99.90;;;;;;5074033;28;20181;-71
2023/07/24 02:43:13;;;;;;;8.60;3.57;;;17.00;99.90;;;;;;5073883;28;20181;-71
2023/07/24 02:45:39;;;;;;;8.70;4.87;;;17.00;99.90;;;;;;5074391;28;20230;-72
2023/07/24 02:48:05;;;;;;;8.30;4.23;;;16.90;99.90;;;;;;5074392;28;20238;-71
2023/07/24 02:50:30;;;;;;;9.70;4.00;;;16.80;99.90;;;;;;5074053;28;20273;-71
2023/07/24 02:52:56;;;;;;;8.97;4.20;;;16.70;99.90;;;;;;5074130;28;20422;-71
2023/07/24 02:55:22;;;;;;;13.27;4.13;;;16.60;99.90;;;;;;5073455;28;20662;-71
2023/07/24 02:57:47;;;;;;;10.17;4.77;;;16.50;99.90;;;;;;5071802;28;20186;-71
2023/07/24 03:00:13;;;;;;;11.97;4.50;;;16.40;99.90;;;;;;5071437;28;20208;-71
2023/07/24 03:02:39;;;;;;;7.83;4.20;;;16.30;99.90;;;;;;5073796;28;20177;-71
2023/07/24 03:05:05;;;;;;;10.10;4.60;;;16.30;99.90;;;;;;5073436;28;20185;-71
2023/07/24 03:07:32;;;;;;;8.40;3.93;;;16.30;99.90;;;;;;5073358;28;20890;-71
2023/07/24 03:09:57;;;;;;;11.00;3.70;;;16.20;99.90;;;;;;5073396;28;20302;-71
2023/07/24 03:12:23;;;;;;;7.53;3.53;;;16.20;99.90;;;;;;5073593;28;20937;-71
2023/07/24 03:14:49;;;;;;;7.90;3.40;;;16.10;99.90;;;;;;5073184;28;20224;-71
2023/07/24 03:17:14;;;;;;;9.60;4.27;;;16.10;99.90;;;;;;5073739;28;20186;-71
2023/07/24 03:19:41;;;;;;;7.80;3.47;;;16.10;99.90;;;;;;5074160;28;20284;-71
2023/07/24 03:22:07;;;;;;;11.23;4.47;;;16.00;99.90;;;;;;5066036;28;20181;-71
2023/07/24 03:24:33;;;;;;;7.20;3.47;;;16.10;99.90;;;;;;5073389;28;20411;-71
2023/07/24 03:27:00;;;;;;;8.43;4.17;;;16.00;99.90;;;;;;5073644;28;20430;-71
2023/07/24 03:29:26;;;;;;;8.90;3.73;;;16.00;99.90;;;;;;5073389;28;20510;-71
2023/07/24 03:31:51;;;;;;;8.90;4.37;;;16.00;99.90;;;;;;5073347;28;20415;-71
2023/07/24 03:34:17;;;;;;;15.07;3.80;;;16.00;99.90;;;;;;5073519;28;20790;-71
2023/07/24 03:36:43;;;;;;;7.87;3.93;;;16.00;99.90;;;;;;5073186;28;20225;-71
2023/07/24 03:39:11;;;;;;;8.73;4.30;;;16.00;99.90;;;;;;5072991;28;20181;-71
2023/07/24 03:41:38;;;;;;;8.87;4.07;;;16.00;99.90;;;;;;5068272;28;20188;-71
2023/07/24 03:44:04;;;;;;;12.70;4.50;;;16.00;99.90;;;;;;5070942;28;20443;-71
2023/07/24 03:46:31;;;;;;;10.70;4.17;;;16.00;99.90;;;;;;5067305;28;20431;-71
2023/07/24 03:48:57;;;;;;;12.13;4.10;;;16.00;99.90;;;;;;5071327;28;20188;-71
2023/07/24 03:51:22;;;;;;;7.63;3.70;;;16.00;99.90;;;;;;5072608;28;20425;-71
2023/07/24 03:53:48;;;;;;;8.23;5.10;;;16.00;99.90;;;;;;5072484;28;20304;-71
2023/07/24 03:56:13;;;;;;;10.10;3.77;;;16.10;99.90;;;;;;5072229;28;20196;-71
2023/07/24 03:58:39;;;;;;;10.07;4.50;;;16.10;99.90;;;;;;5072961;28;20186;-71
2023/07/24 04:01:05;;;;;;;7.13;3.80;;;16.20;99.90;;;;;;5072859;28;20281;-71
2023/07/24 04:03:31;;;;;;;8.10;4.60;;;16.20;99.90;;;;;;5072360;28;20189;-72
2023/07/24 04:05:57;;;;;;;11.83;3.90;;;16.30;99.90;;;;;;5072002;28;20426;-71
2023/07/24 04:08:22;;;;;;;11.43;4.10;;;16.30;99.90;;;;;;5072939;28;20536;-71
2023/07/24 04:10:48;;;;;;;8.70;3.70;;;16.30;99.90;;;;;;5072264;28;20196;-71
2023/07/24 04:13:13;;;;;;;8.80;4.07;;;16.30;99.90;;;;;;5072317;28;20212;-71
2023/07/24 04:15:39;;;;;;;15.87;4.80;;;16.30;99.90;;;;;;5072365;28;20243;-71
2023/07/24 04:18:05;;;;;;;10.40;4.47;;;16.30;99.90;;;;;;5072606;28;20185;-71
2023/07/24 04:20:31;;;;;;;11.00;3.93;;;16.40;99.90;;;;;;5072418;28;20604;-71
2023/07/24 04:22:56;;;;;;;7.40;3.50;;;16.40;99.90;;;;;;5072779;28;20461;-71
2023/07/24 04:25:22;;;;;;;8.53;3.83;;;16.40;99.90;;;;;;5071709;28;20665;-71
2023/07/24 04:27:48;;;;;;;7.27;3.57;;;16.50;99.90;;;;;;5072688;28;20177;-71
2023/07/24 04:30:13;;;;;;;12.30;4.37;;;16.50;99.90;;;;;;5072430;28;20251;-71
2023/07/24 04:32:39;;;;;;;8.93;3.93;;;16.60;99.90;;;;;;5072177;28;20559;-71
2023/07/24 04:35:05;;;;;;;10.50;5.00;;;16.60;99.90;;;;;;5071697;28;20212;-71
2023/07/24 04:37:31;;;;;;;11.17;3.80;;;16.70;99.90;;;;;;5071846;28;20196;-71
2023/07/24 04:39:56;;;;;;;8.47;4.10;;;16.70;99.90;;;;;;5071650;28;20419;-71
2023/07/24 04:42:22;;;;;;;9.70;5.10;;;16.60;99.90;;;;;;5072052;28;20189;-71
2023/07/24 04:44:49;;;;;;;12.00;4.83;;;16.70;99.90;;;;;;5071451;28;20216;-71
2023/07/24 04:47:15;;;;;;;7.27;3.47;;;16.70;99.90;;;;;;5071820;28;20181;-71
2023/07/24 04:49:41;;;;;;;12.70;4.57;;;16.80;99.90;;;;;;5071868;28;20499;-71
2023/07/24 04:52:06;;;;;;;9.90;4.90;;;16.80;99.90;;;;;;5071471;28;20185;-71
2023/07/24 04:54:32;;;;;;;6.77;3.27;;;16.80;99.90;;;;;;5071130;28;20208;-71
2023/07/24 04:56:58;;;;;;;11.70;4.10;;;16.80;99.90;;;;;;5071522;28;20230;-71
2023/07/24 04:59:23;;;;;;;8.97;3.73;;;16.80;99.90;;;;;;5070844;28;20185;-71
2023/07/24 05:01:49;;;;;;;8.93;3.87;;;16.80;99.90;;;;;;5071239;28;20180;-72
2023/07/24 05:04:15;;;;;;;9.70;4.03;;;16.80;99.90;;;;;;5071150;28;20677;-71
2023/07/24 05:06:40;;;;;;;6.63;3.27;;;16.90;99.90;;;;;;5071224;28;20260;-71
2023/07/24 05:09:06;;;;;;;11.33;4.00;;;17.00;99.90;;;;;;5068159;28;20193;-71
2023/07/24 05:11:32;;;;;;;10.53;4.70;;;17.00;99.90;;;;;;5071252;28;20189;-71
2023/07/24 05:13:57;;;;;;;9.10;4.00;;;17.10;99.90;;;;;;5071289;28;20902;-71
2023/07/24 05:16:23;;;;;;;11.20;4.37;;;17.20;99.90;;;;;;5071282;28;20570;-71
2023/07/24 05:18:49;;;;;;;10.77;3.77;;;17.20;99.90;;;;;;5071495;28;20213;-71
2023/07/24 05:21:14;;;;;;;7.13;3.97;;;17.30;99.90;;;;;;5071097;28;20184;-71
2023/07/24 05:23:40;;;;;;;10.57;3.90;;;17.30;99.90;;;;;;5070833;28;20189;-71
2023/07/24 05:26:05;;;;;;;9.00;4.27;;;17.40;99.90;;;;;;5070916;28;20181;-71
2023/07/24 05:28:32;;;;;;;12.47;4.50;;;17.40;99.90;;;;;;5071158;28;20185;-71
2023/07/24 05:31:05;;;;;;;14.60;4.47;;;17.50;99.90;;;;;;5070857;28;20216;-71
2023/07/24 05:33:31;;;;;;;11.70;4.00;;;17.50;99.90;;;;;;5070561;28;20471;-71
2023/07/24 05:35:59;;;;;;;6.83;3.63;;;17.50;99.90;;;;;;5070689;28;20446;-71
2023/07/24 05:38:24;;;;;;;9.30;3.90;;;17.50;99.90;;;;;;5071171;28;20428;-71
2023/07/24 05:41:02;;;;;;;9.30;3.93;;;17.50;99.90;;;;;;5070182;28;20423;-71
2023/07/24 05:43:28;;;;;;;10.83;3.47;;;17.60;99.90;;;;;;5070341;28;20665;-71
2023/07/24 05:45:54;;;;;;;10.40;5.10;;;17.60;99.90;;;;;;5070661;28;20459;-71
2023/07/24 05:48:21;;;;;;;14.00;4.20;;;17.70;99.90;;;;;;5070958;28;20455;-71
2023/07/24 05:50:47;;;;;;;8.20;3.83;;;17.70;99.90;;;;;;5070305;28;20431;-71
2023/07/24 05:53:13;;;;;;;9.80;3.67;;;17.80;99.90;;;;;;5070403;28;20467;-71
2023/07/24 05:55:39;;;;;;;11.60;5.40;;;18.00;99.90;;;;;;5070381;28;20424;-71
2023/07/24 05:58:04;;;;;;;13.00;4.33;;;18.10;99.90;;;;;;5065276;28;20906;-71
2023/07/24 06:00:30;;;;;;;10.90;4.23;;;18.20;99.90;;;;;;5070554;28;20177;-71
2023/07/24 06:02:56;;;;;;;9.30;4.43;;;18.20;99.90;;;;;;5066822;28;20193;-71
2023/07/24 06:05:21;;;;;;;9.80;4.27;;;18.30;99.90;;;;;;5069371;28;20186;-71
2023/07/24 06:07:47;;;;;;;8.97;4.70;;;18.30;99.90;;;;;;5067688;28;20192;-71
2023/07/24 06:10:13;;;;;;;10.80;4.67;;;18.20;99.90;;;;;;5069941;28;20181;-71
2023/07/24 06:12:39;;;;;;;10.97;4.27;;;18.30;99.90;;;;;;5067459;28;20613;-71
2023/07/24 06:15:06;;;;;;;12.70;4.80;;;18.30;99.90;;;;;;5069702;28;20258;-71
2023/07/24 06:17:32;;;;;;;9.83;3.70;;;18.30;99.90;;;;;;5068551;28;20185;-71
2023/07/24 06:19:57;;;;;;;8.60;4.73;;;18.40;99.90;;;;;;5069029;28;20421;-71
2023/07/24 06:22:23;;;;;;;7.70;4.10;;;18.40;99.90;;;;;;5066646;28;20657;-71
2023/07/24 06:24:49;;;;;;;9.30;4.40;;;18.40;99.90;;;;;;5065668;28;20288;-71
2023/07/24 06:27:15;;;;;;;13.40;5.10;;;18.40;99.90;;;;;;5066874;28;20524;-71
2023/07/24 06:29:41;;;;;;;10.80;5.20;;;18.40;99.90;;;;;;5065245;28;20530;-71
2023/07/24 06:32:07;;;;;;;8.40;4.20;;;18.40;99.90;;;;;;5067962;28;20430;-71
2023/07/24 06:34:33;;;;;;;9.00;4.20;;;18.50;99.90;;;;;;5066092;28;20246;-71
2023/07/24 06:36:58;;;;;;;9.60;4.63;;;18.50;99.90;;;;;;5063653;28;20418;-71
2023/07/24 06:39:24;;;;;;;11.07;5.00;;;18.70;99.90;;;;;;5062154;28;20185;-71
2023/07/24 06:41:52;;;;;;;11.70;5.40;;;18.80;99.90;;;;;;5068706;28;20183;-71
2023/07/24 06:44:17;;;;;;;19.87;5.43;;;18.90;99.90;;;;;;5067217;28;20213;-71
2023/07/24 06:46:43;;;;;;;7.33;3.90;;;19.10;99.90;;;;;;5070104;28;20415;-71
2023/07/24 06:49:10;;;;;;;12.60;4.83;;;19.20;99.90;;;;;;5065066;28;20193;-71
2023/07/24 06:51:35;;;;;;;10.63;5.07;;;19.30;99.90;;;;;;5070265;28;20181;-72
2023/07/24 06:54:01;;;;;;;10.60;4.33;;;19.50;99.90;;;;;;5061346;28;20459;-71
2023/07/24 06:56:26;;;;;;;12.17;4.50;;;19.60;99.90;;;;;;5061894;28;20182;-71
2023/07/24 06:58:53;;;;;;;7.20;4.27;;;19.70;99.90;;;;;;5068952;28;20185;-71
2023/07/24 07:01:18;;;;;;;9.57;5.60;;;19.90;99.90;;;;;;5069269;28;20573;-71
2023/07/24 07:03:44;;;;;;;17.00;5.40;;;19.80;99.90;;;;;;5069545;28;20427;-71
2023/07/24 07:06:11;;;;;;;9.57;4.53;;;20.00;99.90;;;;;;5069139;28;20213;-71
2023/07/24 07:08:37;;;;;;;12.33;5.17;;;20.00;99.90;;;;;;5069618;28;20246;-71
2023/07/24 07:11:02;;;;;;;11.03;4.40;;;20.10;99.90;;;;;;5069415;28;20428;-71
2023/07/24 07:13:28;;;;;;;15.10;4.27;;;20.20;99.90;;;;;;5069440;28;20212;-71
2023/07/24 07:15:54;;;;;;;11.13;5.40;;;20.30;99.90;;;;;;5069605;28;20655;-70
2023/07/24 07:18:19;;;;;;;8.73;4.13;;;20.30;99.90;;;;;;5070175;28;20181;-71
2023/07/24 07:20:49;;;;;;;9.50;4.37;;;20.30;99.90;;;;;;5069336;28;20260;-71
2023/07/24 07:23:15;;;;;;;16.93;5.30;;;20.40;99.90;;;;;;5062327;28;20201;-71
2023/07/24 07:25:43;;;;;;;18.83;4.97;;;20.40;99.90;;;;;;5072795;28;20426;-71
2023/07/24 07:28:09;;;;;;;13.83;4.70;;;20.40;99.90;;;;;;5073815;28;20239;-71
2023/07/24 07:30:34;;;;;;;5.93;3.90;;;20.30;99.90;;;;;;5073101;28;20534;-71
2023/07/24 07:33:00;;;;;;;14.33;4.87;;;20.30;99.90;;;;;;5073511;28;20526;-71
2023/07/24 07:35:26;;;;;;;15.30;4.70;;;20.30;99.90;;;;;;5072620;28;20209;-71
2023/07/24 07:37:52;;;;;;;10.27;4.77;;;20.30;99.90;;;;;;5073571;28;20181;-71
2023/07/24 07:40:17;;;;;;;10.13;4.80;;;20.40;99.90;;;;;;5072779;28;20200;-71
2023/07/24 07:42:44;;;;;;;7.67;3.70;;;20.40;99.90;;;;;;5073487;28;20196;-71
2023/07/24 07:45:10;;;;;;;12.27;5.00;;;20.60;99.90;;;;;;5072700;28;20818;-71
2023/07/24 07:47:36;;;;;;;11.07;4.83;;;20.60;99.90;;;;;;5073187;28;20424;-71
2023/07/24 07:50:02;;;;;;;7.83;4.03;;;20.70;99.90;;;;;;5073256;28;20189;-70
2023/07/24 07:52:28;;;;;;;11.23;5.00;;;20.60;99.90;;;;;;5072563;28;20196;-71
2023/07/24 07:54:53;;;;;;;10.30;4.40;;;20.40;99.90;;;;;;5072188;28;20471;-71
2023/07/24 07:57:19;;;;;;;8.77;4.30;;;20.30;99.90;;;;;;5072731;28;20190;-70
2023/07/24 07:59:45;;;;;;;13.27;5.00;;;20.20;99.90;;;;;;5072594;28;20590;-71
2023/07/24 08:02:10;;;;;;;15.80;5.83;;;19.90;99.90;;;;;;5072988;28;20205;-70
2023/07/24 08:04:36;;;;;;;9.93;4.67;;;19.80;99.90;;;;;;5072425;28;20250;-71
2023/07/24 08:07:01;;;;;;;9.50;3.90;;;19.60;99.90;;;;;;5072119;28;20576;-70
2023/07/24 08:09:28;;;;;;;11.70;5.53;;;19.40;99.90;;;;;;5072754;28;20692;-71
2023/07/24 08:11:53;;;;;;;13.50;5.07;;;19.10;99.90;;;;;;5072151;28;20563;-70
2023/07/24 08:14:19;;;;;;;11.93;5.13;;;18.70;99.90;;;;;;5072029;28;20458;-70
2023/07/24 08:16:47;;;;;;;9.63;4.90;;;18.50;99.90;;;;;;5072373;28;20193;-70
2023/07/24 08:19:13;;;;;;;11.37;3.80;;;18.30;99.90;;;;;;5072747;28;20180;-70
2023/07/24 08:21:40;;;;;;;10.50;4.17;;;18.10;99.90;;;;;;5072120;28;20510;-69
2023/07/24 08:24:05;;;;;;;7.00;3.50;;;18.10;99.90;;;;;;5072386;28;20596;-70
2023/07/24 08:26:31;;;;;;;8.30;4.20;;;18.00;99.90;;;;;;5072198;28;20431;-70
2023/07/24 08:28:57;;;;;;;8.97;3.43;;;18.00;99.90;;;;;;5072678;28;20186;-71
2023/07/24 08:31:22;;;;;;;12.43;4.20;;;18.00;99.90;;;;;;5072298;28;20623;-71
2023/07/24 08:33:48;;;;;;;8.60;3.80;;;18.00;99.90;;;;;;5071536;28;20212;-71
2023/07/24 08:36:13;;;;;;;9.50;3.57;;;18.00;99.90;;;;;;5071642;28;20851;-71
2023/07/24 08:38:41;;;;;;;9.97;3.73;;;18.00;99.90;;;;;;5072129;28;20191;-71
2023/07/24 08:41:09;;;;;;;8.63;4.53;;;18.10;99.90;;;;;;5071628;28;20177;-71
2023/07/24 08:43:36;;;;;;;10.80;4.07;;;18.10;99.90;;;;;;5071755;28;20481;-71
2023/07/24 08:46:03;;;;;;;16.30;4.20;;;18.20;99.90;;;;;;5071982;28;20784;-71
2023/07/24 08:48:46;;;;;;;7.43;3.80;;;18.30;99.90;;;;;;5071907;28;20415;-70
2023/07/24 08:51:16;;;;;;;8.50;3.43;;;18.40;99.90;;;;;;5069495;28;20458;-70
2023/07/24 08:53:43;;;;;;;14.83;3.23;;;18.40;99.90;;;;;;5071447;28;20490;-71
2023/07/24 08:56:10;;;;;;;5.90;3.00;;;18.50;99.90;;;;;;5071246;28;20427;-71
2023/07/24 08:58:36;;;;;;;8.23;3.20;;;18.60;99.90;;;;;;5071859;28;20411;-70
2023/07/24 09:01:03;;;;;;;5.43;3.07;;;18.80;99.90;;;;;;5071489;28;20885;-70
2023/07/24 09:03:30;;;;;;;15.43;2.73;;;18.90;99.90;;;;;;5071119;28;20427;-71
2023/07/24 09:05:57;;;;;;;7.80;2.43;;;18.90;99.90;;;;;;5071064;28;20431;-71
2023/07/24 09:08:32;;;;;;;4.40;2.10;;;19.00;99.90;;;;;;5070854;28;20427;-71
2023/07/24 09:10:59;;;;;;;4.17;2.43;;;19.20;99.90;;;;;;5071101;28;20446;-71
2023/07/24 09:13:25;;;;;;;5.90;2.30;;;19.50;99.90;;;;;;5071220;28;20465;-71
2023/07/24 09:15:51;;;;;;;8.40;2.93;;;19.70;99.90;;;;;;5071349;28;20474;-71
2023/07/24 09:18:18;;;;;;;7.37;3.27;;;19.90;99.90;;;;;;5071568;28;20439;-71
2023/07/24 09:20:44;;;;;;;9.70;4.67;;;20.10;99.90;;;;;;5071105;28;20181;-71
2023/07/24 09:23:11;;;;;;;6.90;3.00;;;20.30;99.90;;;;;;5071145;28;20415;-71
2023/07/24 09:25:38;;;;;;;7.47;2.77;;;20.50;99.90;;;;;;5070867;28;20423;-71
2023/07/24 09:28:11;;;;;;;7.80;3.73;;;20.50;99.90;;;;;;5071364;28;20419;-71
2023/07/24 09:30:38;;;;;;;5.83;2.27;;;20.40;99.90;;;;;;5071064;28;20423;-71
2023/07/24 09:33:04;;;;;;;9.43;3.00;;;20.30;99.90;;;;;;5070938;28;20411;-71
2023/07/24 09:35:31;;;;;;;7.27;3.67;;;20.30;99.90;;;;;;5069573;28;20801;-71
2023/07/24 09:38:07;;;;;;;7.83;2.87;;;20.20;99.90;;;;;;5071014;28;20411;-71
2023/07/24 09:40:46;;;;;;;9.60;2.80;;;20.00;99.90;;;;;;5063062;28;20497;-71
2023/07/24 09:43:26;;;;;;;6.37;3.27;;;20.00;99.90;;;;;;5067678;28;21079;-71
2023/07/24 09:45:53;;;;;;;8.80;4.10;;;20.10;99.90;;;;;;5064331;28;20415;-71
2023/07/24 09:48:21;;;;;;;4.97;2.90;;;20.10;99.90;;;;;;5052356;28;21034;-71
2023/07/24 09:50:49;;;;;;;4.10;2.30;;;20.10;99.90;;;;;;5063489;28;20451;-72
2023/07/24 09:53:36;;;;;;;6.17;2.50;;;20.00;99.90;;;;;;5069398;28;20904;-71
2023/07/24 09:56:07;;;;;;;6.77;3.20;;;20.00;99.90;;;;;;5070481;28;20947;-71
2023/07/24 09:58:34;;;;;;;10.07;3.30;;;19.90;99.90;;;;;;5070747;28;20419;-71
2023/07/24 10:01:05;;;;;;;14.80;4.07;;;19.80;99.90;;;;;;5070633;28;20415;-71
2023/07/24 10:03:35;;;;;;;8.47;4.40;;;19.70;99.90;;;;;;5070373;28;20506;-71
2023/07/24 10:06:01;;;;;;;7.17;3.50;;;19.60;99.90;;;;;;5068790;28;20432;-71
2023/07/24 10:08:27;;;;;;;6.67;2.87;;;19.50;99.90;;;;;;5070684;28;20423;-71
2023/07/24 10:10:53;;;;;;;9.60;3.27;;;19.30;99.90;;;;;;5070290;28;20674;-70
2023/07/24 10:13:21;;;;;;;9.10;3.73;;;19.20;99.90;;;;;;5070039;28;20287;-71
2023/07/24 10:15:48;;;;;;;6.40;2.53;;;19.10;99.90;;;;;;5070505;28;20443;-71
2023/07/24 10:18:17;;;;;;;13.90;4.00;;;19.00;99.90;;;;;;5070573;28;20897;-71
2023/07/24 10:20:43;;;;;;;7.00;3.43;;;18.80;99.90;;;;;;5069967;28;20506;-71
2023/07/24 10:23:10;;;;;;;7.43;3.77;;;18.70;99.90;;;;;;5070269;28;20506;-71
2023/07/24 10:25:40;;;;;;;11.50;3.17;;;18.60;99.90;;;;;;5070168;28;20623;-71
2023/07/24 10:28:10;;;;;;;7.40;3.80;;;18.50;99.90;;;;;;5070590;28;20419;-72
2023/07/24 10:30:37;;;;;;;12.00;4.60;;;18.40;99.90;;;;;;5069694;28;20490;-71
2023/07/24 10:33:07;;;;;;;10.73;3.53;;;18.20;99.90;;;;;;5065963;28;20466;-72
2023/07/24 10:35:42;;;;;;;16.37;4.10;;;18.10;99.90;;;;;;5064999;28;20521;-72
2023/07/24 10:38:09;;;;;;;4.77;2.90;;;18.00;99.90;;;;;;5061972;28;20468;-71
2023/07/24 10:40:34;;;;;;;8.50;3.60;;;17.90;99.90;;;;;;5066978;28;20431;-71
2023/07/24 10:43:09;;;;;;;7.30;3.90;;;17.90;99.90;;;;;;5069253;28;20423;-70
2023/07/24 10:45:52;;;;;;;6.63;3.20;;;17.80;99.90;;;;;;5066192;28;20172;-71
2023/07/24 10:48:19;;;;;;;12.50;4.93;;;17.80;99.90;;;;;;5068214;28;20814;-72
2023/07/24 10:50:49;;;;;;;9.47;3.90;;;17.70;99.90;;;;;;5066715;28;20924;-71
2023/07/24 10:53:19;;;;;;;9.73;4.77;;;17.70;99.90;;;;;;5068710;28;20419;-72
2023/07/24 10:55:50;;;;;;;9.60;3.97;;;17.70;99.90;;;;;;5063326;28;20873;-71
2023/07/24 10:58:16;;;;;;;7.47;4.07;;;17.60;99.90;;;;;;5068095;28;20455;-71
2023/07/24 11:00:43;;;;;;;5.63;3.07;;;17.60;99.90;;;;;;5071642;28;20950;-71
2023/07/24 11:03:10;;;;;;;14.90;5.20;;;17.60;99.90;;;;;;5073019;28;20178;-71
2023/07/24 11:05:40;;;;;;;7.20;5.00;;;17.60;99.90;;;;;;5070759;28;20420;-71
2023/07/24 11:08:16;;;;;;;10.20;4.20;;;17.50;99.90;;;;;;5072509;28;20453;-71
2023/07/24 11:10:48;;;;;;;11.10;4.00;;;17.60;99.90;;;;;;5072501;28;20759;-71
2023/07/24 11:13:14;;;;;;;6.17;3.63;;;17.60;99.90;;;;;;5066288;28;20423;-71
2023/07/24 11:15:40;;;;;;;6.43;3.73;;;17.50;99.90;;;;;;5065766;28;20450;-71
2023/07/24 11:18:08;;;;;;;6.87;3.40;;;17.40;99.90;;;;;;5070822;28;20422;-71
2023/07/24 11:20:46;;;;;;;10.23;4.07;;;17.40;99.90;;;;;;5070656;28;20678;-71
2023/07/24 11:23:12;;;;;;;11.70;4.90;;;17.40;99.90;;;;;;5070377;28;20961;-71
2023/07/24 11:25:38;;;;;;;7.43;3.57;;;17.40;99.90;;;;;;5077150;28;20403;-71
2023/07/24 11:28:09;;;;;;;11.27;4.57;;;17.30;99.90;;;;;;5081890;28;20415;-72
2023/07/24 11:30:35;;;;;;;8.00;4.53;;;17.40;99.90;;;;;;5071055;28;20431;-71
2023/07/24 11:33:03;;;;;;;11.33;4.83;;;17.40;99.90;;;;;;5070699;28;20436;-71
2023/07/24 11:35:29;;;;;;;9.43;5.20;;;17.70;99.90;;;;;;5072726;28;20468;-72
2023/07/24 11:37:54;;;;;;;8.97;5.17;;;18.10;99.90;;;;;;5073432;28;20411;-72
2023/07/24 11:40:20;;;;;;;10.90;5.07;;;18.30;99.90;;;;;;5073480;28;20177;-72
2023/07/24 11:42:48;;;;;;;6.90;3.67;;;18.40;99.90;;;;;;5074501;28;20173;-78
2023/07/24 11:45:14;;;;;;;8.50;4.20;;;18.60;99.90;;;;;;5062194;28;20230;-78
2023/07/24 11:47:46;;;;;;;12.73;4.33;;;18.70;99.90;;;;;;5075903;28;20908;-79
2023/07/24 11:50:12;;;;;;;8.20;4.17;;;18.90;99.90;;;;;;5068334;28;20432;-79
2023/07/24 11:52:39;;;;;;;10.10;3.83;;;18.80;99.90;;;;;;5053846;28;20428;-77
2023/07/24 11:55:06;;;;;;;13.53;4.57;;;18.80;99.90;;;;;;5073624;28;20463;-77
2023/07/24 11:57:31;;;;;;;8.60;4.37;;;18.80;99.90;;;;;;5056743;28;20447;-77
2023/07/24 11:59:58;;;;;;;9.77;3.67;;;18.80;99.90;;;;;;5078755;28;20835;-77
2023/07/24 12:02:26;;;;;;;10.10;3.77;;;19.10;99.90;;;;;;5056677;28;20516;-77
2023/07/24 12:04:57;;;;;;;9.90;4.33;;;19.50;99.90;;;;;;5056075;28;20484;-77
2023/07/24 12:07:28;;;;;;;7.37;3.60;;;19.80;99.90;;;;;;5069702;28;20411;-77
2023/07/24 12:09:54;;;;;;;8.17;3.47;;;19.60;99.90;;;;;;5074941;28;20835;-77
2023/07/24 12:12:20;;;;;;;7.23;3.30;;;19.80;99.90;;;;;;5073298;28;20506;-77
2023/07/24 12:14:45;;;;;;;9.53;4.53;;;19.90;99.90;;;;;;5072937;28;20205;-76
2023/07/24 12:17:14;;;;;;;6.00;3.50;;;20.00;99.90;;;;;;5073266;28;20173;-76
2023/07/24 12:19:39;;;;;;;5.63;3.33;;;20.40;99.90;;;;;;5073284;28;20199;-77
2023/07/24 12:22:05;;;;;;;5.90;3.37;;;20.70;99.90;;;;;;5073205;28;20451;-76
2023/07/24 12:24:31;;;;;;;8.10;3.90;;;20.90;99.90;;;;;;5072550;28;20182;-76
2023/07/24 12:26:56;;;;;;;4.80;2.70;;;21.00;99.90;;;;;;5072849;28;20231;-76
2023/07/24 12:29:22;;;;;;;8.43;3.20;;;21.00;99.90;;;;;;5073248;28;20781;-77
2023/07/24 12:31:48;;;;;;;5.77;3.00;;;20.90;99.90;;;;;;5071503;28;20189;-77
2023/07/24 12:34:13;;;;;;;7.00;2.60;;;20.90;99.90;;;;;;5072412;28;20284;-77
2023/07/24 12:36:39;;;;;;;7.07;3.30;;;20.80;99.90;;;;;;5054203;28;20181;-77
2023/07/24 12:39:04;;;;;;;5.83;3.10;;;20.70;99.90;;;;;;5072257;28;20635;-77
2023/07/24 12:41:30;;;;;;;9.57;3.80;;;20.60;99.90;;;;;;5064452;28;20196;-77